Time;durP1;ratioP1;P1;durP2;ratioP2;P2;SDS_P1;SDS_P2;PMS_P1;PMS_P2;Temp;Humidity;BMP_temperature;BMP_pressure;BME280_temperature;BME280_humidity;BME280_pressure;Samples;Min_cycle;Max_cycle;Signal;HPM_P1;HPM_P2
2022/07/05 00:02:03;;;;;;;3.08;1.20;;;;;;;29.35;31.79;100672.28;4919787;29;20051;-72
2022/07/05 00:04:39;;;;;;;8.10;2.10;;;;;;;29.31;33.88;100671.56;4908215;29;20048;-72
2022/07/05 00:07:19;;;;;;;4.53;1.70;;;;;;;29.30;33.99;100672.53;4921459;29;20124;-72
2022/07/05 00:09:51;;;;;;;2.17;0.70;;;;;;;29.33;35.10;100675.03;4918128;29;20503;-73
2022/07/05 00:12:21;;;;;;;1.00;0.90;;;;;;;29.31;33.78;100676.91;4914386;29;20056;-72
2022/07/05 00:14:50;;;;;;;2.25;1.00;;;;;;;29.29;33.23;100677.91;4913073;29;20107;-75
2022/07/05 00:17:19;;;;;;;0.70;0.70;;;;;;;29.12;31.89;100662.78;4914365;29;20048;-75
2022/07/05 00:19:48;;;;;;;1.00;0.70;;;;;;;28.94;32.71;100669.84;4916708;29;20617;-72
2022/07/05 00:22:16;;;;;;;1.40;0.90;;;;;;;28.89;35.55;100659.41;4918237;29;20482;-75
2022/07/05 00:24:45;;;;;;;2.25;0.98;;;;;;;28.74;32.52;100665.44;4913382;29;20107;-77
2022/07/05 00:27:15;;;;;;;1.45;0.77;;;;;;;28.54;33.68;100661.94;4911519;29;20051;-75
2022/07/05 00:29:44;;;;;;;1.00;0.80;;;;;;;28.37;32.13;100654.69;4922848;29;20577;-75
2022/07/05 00:32:12;;;;;;;1.58;0.90;;;;;;;28.22;32.13;100667.84;4916494;29;20052;-74
2022/07/05 00:34:41;;;;;;;1.40;1.10;;;;;;;27.94;32.22;100661.09;4923451;29;20108;-72
2022/07/05 00:37:09;;;;;;;1.23;0.70;;;;;;;27.94;32.76;100653.13;4911870;29;20547;-73
2022/07/05 00:39:38;;;;;;;1.13;0.70;;;;;;;27.93;33.79;100659.38;4908834;29;20639;-74
2022/07/05 00:42:06;;;;;;;1.98;0.60;;;;;;;27.83;32.92;100658.03;4924137;28;20059;-74
2022/07/05 00:44:39;;;;;;;2.53;0.73;;;;;;;27.74;33.58;100662.81;4931099;29;20050;-76
2022/07/05 00:47:09;;;;;;;1.02;0.60;;;;;;;27.50;32.13;100658.56;4929070;29;20040;-72
2022/07/05 00:49:38;;;;;;;1.13;0.80;;;;;;;27.44;33.37;100651.72;4932293;29;20455;-73
2022/07/05 00:52:11;;;;;;;0.85;0.75;;;;;;;27.63;35.63;100665.06;4932550;29;20067;-73
2022/07/05 00:54:41;;;;;;;2.20;0.90;;;;;;;27.75;36.01;100661.03;4930966;29;20060;-72
2022/07/05 00:57:12;;;;;;;1.10;0.80;;;;;;;27.85;35.30;100662.38;4932736;29;20050;-72
2022/07/05 00:59:43;;;;;;;0.80;0.70;;;;;;;27.87;36.22;100651.69;4932526;29;20047;-71
2022/07/05 01:02:11;;;;;;;1.27;0.80;;;;;;;27.85;34.35;100651.72;4930966;29;20349;-73
2022/07/05 01:04:40;;;;;;;0.77;0.73;;;;;;;27.90;33.79;100647.09;4932637;29;20043;-72
2022/07/05 01:07:09;;;;;;;0.63;0.50;;;;;;;27.93;35.60;100651.41;4935526;29;20103;-72
2022/07/05 01:09:37;;;;;;;1.67;0.70;;;;;;;27.91;33.76;100640.84;4932826;29;20051;-73
2022/07/05 01:12:06;;;;;;;1.13;0.70;;;;;;;27.92;32.88;100649.66;4924465;29;20056;-74
2022/07/05 01:14:35;;;;;;;2.40;0.65;;;;;;;27.72;32.76;100640.75;4931917;29;20043;-72
2022/07/05 01:17:05;;;;;;;0.80;0.65;;;;;;;27.72;34.25;100638.09;4931373;29;20040;-72
2022/07/05 01:19:34;;;;;;;1.63;0.98;;;;;;;27.74;33.46;100635.34;4931494;29;20040;-73
2022/07/05 01:22:05;;;;;;;1.60;0.60;;;;;;;27.72;33.54;100632.78;4931366;29;20088;-71
2022/07/05 01:24:35;;;;;;;1.10;0.60;;;;;;;27.68;34.37;100632.97;4930932;29;20044;-75
2022/07/05 01:27:03;;;;;;;1.02;0.63;;;;;;;27.45;33.98;100628.66;4924353;29;20059;-72
2022/07/05 01:29:32;;;;;;;0.95;0.65;;;;;;;27.41;34.56;100627.06;4931062;29;20055;-71
2022/07/05 01:32:01;;;;;;;1.10;0.80;;;;;;;27.41;33.94;100627.06;4930617;29;20052;-72
2022/07/05 01:34:29;;;;;;;2.97;0.95;;;;;;;27.43;35.40;100625.22;4929303;29;20471;-71
2022/07/05 01:36:58;;;;;;;3.42;0.70;;;;;;;27.49;36.38;100619.63;4927772;29;20049;-75
2022/07/05 01:39:26;;;;;;;2.38;0.70;;;;;;;27.36;33.59;100619.28;4924668;29;20115;-74
2022/07/05 01:41:56;;;;;;;1.35;0.70;;;;;;;27.30;34.81;100615.06;4930149;28;20052;-72
2022/07/05 01:44:25;;;;;;;1.80;0.75;;;;;;;27.24;34.06;100622.47;4931601;29;20044;-73
2022/07/05 01:47:00;;;;;;;0.90;0.68;;;;;;;27.07;34.34;100623.13;4930770;29;20048;-71
2022/07/05 01:49:31;;;;;;;0.63;0.50;;;;;;;26.94;34.29;100622.78;4930067;29;20119;-71
2022/07/05 01:52:03;;;;;;;0.90;0.70;;;;;;;26.92;34.43;100624.63;4925986;29;20056;-70
2022/07/05 01:54:32;;;;;;;1.50;0.70;;;;;;;26.93;35.31;100616.56;4928932;29;20573;-73
2022/07/05 01:57:02;;;;;;;1.15;0.80;;;;;;;26.98;35.28;100623.50;4931552;29;20086;-72
2022/07/05 01:59:33;;;;;;;0.65;0.60;;;;;;;27.00;34.95;100624.31;4932095;29;20498;-75
2022/07/05 02:02:01;;;;;;;1.10;0.52;;;;;;;26.89;34.34;100630.94;4928582;29;20047;-74
2022/07/05 02:04:31;;;;;;;1.75;0.60;;;;;;;26.76;34.26;100624.38;4934138;28;20055;-75
2022/07/05 02:06:59;;;;;;;1.52;0.60;;;;;;;26.62;34.43;100629.34;4933463;29;20619;-73
2022/07/05 02:09:28;;;;;;;0.82;0.63;;;;;;;26.51;34.88;100635.91;4928377;29;20447;-74
2022/07/05 02:11:56;;;;;;;1.33;0.70;;;;;;;26.46;34.82;100621.97;4930552;29;20102;-72
2022/07/05 02:14:26;;;;;;;0.90;0.60;;;;;;;26.43;35.17;100622.06;4930685;29;20044;-72
2022/07/05 02:16:55;;;;;;;0.93;0.70;;;;;;;26.44;35.84;100618.50;4931113;29;20044;-71
2022/07/05 02:19:23;;;;;;;0.88;0.70;;;;;;;26.43;34.64;100616.75;4929791;29;20048;-71
2022/07/05 02:21:52;;;;;;;0.70;0.63;;;;;;;26.42;35.32;100615.03;4931194;29;20104;-71
2022/07/05 02:24:22;;;;;;;1.45;0.60;;;;;;;26.44;35.91;100618.50;4928393;29;20052;-71
2022/07/05 02:26:51;;;;;;;0.60;0.50;;;;;;;26.43;34.91;100627.38;4928726;29;20051;-71
2022/07/05 02:29:19;;;;;;;0.73;0.60;;;;;;;26.39;35.23;100631.09;4926911;29;20131;-72
2022/07/05 02:31:49;;;;;;;1.05;0.80;;;;;;;26.34;35.61;100630.38;4932004;29;20055;-71
2022/07/05 02:34:18;;;;;;;1.75;0.73;;;;;;;26.33;36.38;100631.31;4933412;29;20044;-71
2022/07/05 02:36:46;;;;;;;0.70;0.40;;;;;;;26.36;36.92;100628.53;4930725;29;20056;-71
2022/07/05 02:39:15;;;;;;;1.10;0.60;;;;;;;26.36;36.86;100633.84;4930561;29;20105;-71
2022/07/05 02:41:43;;;;;;;1.08;0.63;;;;;;;26.37;37.35;100632.94;4948614;28;20817;-71
2022/07/05 02:44:12;;;;;;;1.10;0.60;;;;;;;26.35;36.80;100628.63;4927201;29;20561;-71
2022/07/05 02:46:40;;;;;;;1.10;0.60;;;;;;;26.31;37.32;100627.84;4932694;29;20048;-71
2022/07/05 02:49:11;;;;;;;0.70;0.68;;;;;;;26.25;37.50;100628.06;4928823;29;20056;-71
2022/07/05 02:51:39;;;;;;;0.88;0.70;;;;;;;26.19;37.09;100636.28;4936427;29;20044;-71
2022/07/05 02:54:08;;;;;;;1.05;0.85;;;;;;;26.07;37.26;100625.22;4921587;29;20100;-71
2022/07/05 02:56:36;;;;;;;1.10;0.80;;;;;;;26.03;38.88;100634.19;4928218;29;20545;-70
2022/07/05 02:59:05;;;;;;;2.45;0.95;;;;;;;25.97;37.91;100634.41;4924292;29;20751;-71
2022/07/05 03:01:34;;;;;;;1.30;1.00;;;;;;;25.93;37.81;100640.75;4933951;29;20047;-71
2022/07/05 03:04:02;;;;;;;2.17;1.20;;;;;;;25.82;37.99;100632.28;4928394;29;20099;-70
2022/07/05 03:06:32;;;;;;;4.82;1.17;;;;;;;25.83;38.82;100636.66;4937985;29;20044;-70
2022/07/05 03:09:01;;;;;;;3.45;1.30;;;;;;;25.75;39.10;100639.59;4929939;29;20103;-70
2022/07/05 03:11:29;;;;;;;2.00;1.00;;;;;;;25.68;39.57;100648.69;4931316;29;20043;-70
2022/07/05 03:13:58;;;;;;;2.03;1.20;;;;;;;25.60;39.10;100646.28;4931334;29;20040;-71
2022/07/05 03:16:26;;;;;;;1.30;0.90;;;;;;;25.53;39.12;100647.41;4934709;29;20514;-71
2022/07/05 03:18:55;;;;;;;1.80;1.08;;;;;;;25.45;39.03;100646.81;4933027;29;20055;-70
2022/07/05 03:21:23;;;;;;;1.30;0.77;;;;;;;25.37;40.09;100654.16;4941170;29;20048;-70
2022/07/05 03:23:53;;;;;;;1.10;1.00;;;;;;;25.25;39.28;100658.94;4932823;29;20067;-71
2022/07/05 03:26:22;;;;;;;1.15;0.90;;;;;;;25.19;39.29;100658.28;4933143;29;20044;-71
2022/07/05 03:28:51;;;;;;;1.88;1.10;;;;;;;25.11;39.59;100652.34;4927965;29;20044;-71
2022/07/05 03:31:19;;;;;;;1.17;1.00;;;;;;;25.05;40.04;100658.69;4930997;29;20082;-71
2022/07/05 03:33:48;;;;;;;2.28;1.20;;;;;;;24.95;39.94;100646.69;4931051;29;20048;-70
2022/07/05 03:36:16;;;;;;;2.05;1.10;;;;;;;24.86;40.52;100653.97;4934204;29;20575;-71
2022/07/05 03:38:44;;;;;;;1.08;0.85;;;;;;;24.80;41.33;100658.59;4934448;29;20059;-71
2022/07/05 03:41:15;;;;;;;3.38;1.20;;;;;;;24.73;40.93;100657.91;4938998;28;20110;-71
2022/07/05 03:43:43;;;;;;;1.50;1.20;;;;;;;24.66;40.39;100656.38;4921577;29;20110;-71
2022/07/05 03:46:12;;;;;;;1.80;1.20;;;;;;;24.58;40.34;100653.06;4941848;29;20474;-71
2022/07/05 03:48:40;;;;;;;1.98;1.10;;;;;;;24.49;39.70;100650.72;4928106;29;20040;-71
2022/07/05 03:51:09;;;;;;;3.58;1.30;;;;;;;24.39;40.36;100660.66;4936091;29;20051;-71
2022/07/05 03:53:37;;;;;;;3.17;1.65;;;;;;;24.30;41.19;100659.16;4942351;29;20043;-71
2022/07/05 03:56:06;;;;;;;4.80;2.55;;;;;;;24.22;40.68;100655.88;4933391;29;20054;-72
2022/07/05 03:58:36;;;;;;;6.82;3.13;;;;;;;24.11;41.63;100653.53;4930889;29;20052;-70
2022/07/05 04:01:05;;;;;;;4.32;3.05;;;;;;;24.03;41.21;100656.41;4941913;29;20497;-71
2022/07/05 04:03:33;;;;;;;3.58;2.97;;;;;;;23.94;42.34;100651.38;4932164;29;20048;-71
2022/07/05 04:06:01;;;;;;;3.30;1.67;;;;;;;23.83;44.19;100662.22;4934091;29;20052;-71
2022/07/05 04:08:30;;;;;;;2.15;1.13;;;;;;;23.73;46.15;100657.19;4926456;29;20115;-71
2022/07/05 04:10:58;;;;;;;7.90;3.40;;;;;;;23.62;45.27;100655.72;4932899;29;20513;-72
2022/07/05 04:13:27;;;;;;;2.47;1.92;;;;;;;23.51;46.67;100663.03;4932635;29;20051;-71
2022/07/05 04:15:57;;;;;;;10.40;7.10;;;;;;;23.43;47.41;100665.00;4924714;29;20113;-71
2022/07/05 04:18:26;;;;;;;9.70;7.82;;;;;;;23.35;46.51;100674.88;4931090;29;20044;-71
2022/07/05 04:20:54;;;;;;;7.82;5.75;;;;;;;23.26;46.40;100670.69;4928834;29;20059;-71
2022/07/05 04:23:23;;;;;;;8.55;5.72;;;;;;;23.16;46.81;100667.41;4931081;29;20039;-71
2022/07/05 04:25:51;;;;;;;7.20;5.63;;;;;;;23.10;47.57;100677.25;4932330;29;20111;-71
2022/07/05 04:28:20;;;;;;;6.40;5.50;;;;;;;23.01;48.82;100680.97;4929673;29;20048;-71
2022/07/05 04:30:49;;;;;;;8.00;6.03;;;;;;;22.93;49.76;100690.78;4933637;29;20062;-71
2022/07/05 04:33:19;;;;;;;7.07;4.78;;;;;;;22.83;51.89;100689.28;4930122;29;20056;-71
2022/07/05 04:35:47;;;;;;;7.82;5.57;;;;;;;22.76;51.40;100692.03;4932531;29;20103;-71
2022/07/05 04:38:16;;;;;;;10.07;5.97;;;;;;;22.67;49.23;100700.16;4933881;29;20051;-70
2022/07/05 04:40:44;;;;;;;9.13;6.35;;;;;;;22.60;48.66;100698.53;4934765;29;20063;-71
2022/07/05 04:43:13;;;;;;;9.63;7.82;;;;;;;22.54;48.60;100702.19;4929767;28;20212;-71
2022/07/05 04:45:41;;;;;;;19.23;12.80;;;;;;;22.49;49.01;100703.16;4932976;29;20106;-71
2022/07/05 04:48:10;;;;;;;25.98;19.48;;;;;;;22.43;48.06;100704.19;4928879;29;20135;-70
2022/07/05 04:50:40;;;;;;;57.38;46.65;;;;;;;22.35;47.90;100709.59;4934784;28;20406;-71
2022/07/05 04:53:09;;;;;;;61.40;49.25;;;;;;;22.30;48.03;100707.94;4929283;29;20036;-71
2022/07/05 04:55:38;;;;;;;47.25;38.35;;;;;;;22.24;47.86;100711.59;4927428;29;20047;-71
2022/07/05 04:58:06;;;;;;;32.75;26.25;;;;;;;22.17;47.86;100707.28;4925200;29;20048;-71
2022/07/05 05:00:35;;;;;;;25.33;21.23;;;;;;;22.11;47.90;100715.31;4926840;29;20592;-71
2022/07/05 05:03:04;;;;;;;33.65;24.30;;;;;;;22.04;48.76;100714.56;4923152;29;20105;-71
2022/07/05 05:05:32;;;;;;;31.63;23.95;;;;;;;21.99;49.48;100719.06;4934570;29;20454;-71
2022/07/05 05:08:02;;;;;;;28.27;18.80;;;;;;;21.94;49.37;100719.13;4931701;29;20107;-71
2022/07/05 05:10:31;;;;;;;21.73;13.73;;;;;;;21.89;49.25;100714.84;4925622;29;20047;-71
2022/07/05 05:13:00;;;;;;;15.00;8.55;;;;;;;21.85;49.04;100713.16;4932070;29;20103;-71
2022/07/05 05:15:28;;;;;;;11.30;8.80;;;;;;;21.79;48.79;100722.03;4926352;29;20491;-71
2022/07/05 05:17:56;;;;;;;14.25;9.20;;;;;;;21.74;48.95;100721.25;4927724;29;20564;-71
2022/07/05 05:20:25;;;;;;;17.45;11.20;;;;;;;21.69;48.74;100723.97;4932093;29;20053;-71
2022/07/05 05:22:54;;;;;;;22.08;14.18;;;;;;;21.65;48.94;100721.41;4928798;29;20502;-71
2022/07/05 05:25:24;;;;;;;25.00;14.65;;;;;;;21.59;48.95;100716.22;4931699;29;20047;-71
2022/07/05 05:27:53;;;;;;;13.38;9.55;;;;;;;21.54;49.05;100725.06;4925394;29;20055;-71
2022/07/05 05:30:22;;;;;;;7.57;4.80;;;;;;;21.48;48.82;100719.91;4932511;29;20048;-71
2022/07/05 05:32:50;;;;;;;5.22;3.70;;;;;;;21.43;48.75;100721.75;4925360;29;20642;-72
2022/07/05 05:35:20;;;;;;;5.38;3.97;;;;;;;21.37;48.80;100715.66;4929320;29;20107;-71
2022/07/05 05:37:50;;;;;;;6.13;3.78;;;;;;;21.32;49.13;100718.38;4923765;29;20123;-71
2022/07/05 05:40:19;;;;;;;5.10;3.58;;;;;;;21.26;49.27;100723.75;4931353;29;20048;-71
2022/07/05 05:42:50;;;;;;;4.75;4.18;;;;;;;21.21;49.51;100723.81;4927822;28;20059;-71
2022/07/05 05:45:19;;;;;;;5.45;3.70;;;;;;;21.17;49.50;100729.16;4929375;29;20481;-70
2022/07/05 05:47:49;;;;;;;5.45;3.92;;;;;;;21.11;49.69;100723.06;4911076;29;20116;-71
2022/07/05 05:50:21;;;;;;;5.80;3.70;;;;;;;21.08;49.82;100722.25;4924306;29;20704;-71
2022/07/05 05:52:50;;;;;;;6.43;4.32;;;;;;;21.03;50.12;100722.31;4913098;29;20059;-70
2022/07/05 05:55:18;;;;;;;6.68;4.10;;;;;;;20.99;50.56;100720.63;4931110;28;20411;-70
2022/07/05 05:57:49;;;;;;;5.80;4.45;;;;;;;20.93;50.53;100720.69;4922486;29;20653;-70
2022/07/05 06:00:18;;;;;;;4.85;3.75;;;;;;;20.88;50.48;100714.63;4922581;29;20052;-70
2022/07/05 06:02:49;;;;;;;8.35;4.88;;;;;;;20.83;50.94;100716.47;4919588;29;20048;-70
2022/07/05 06:05:18;;;;;;;6.95;3.83;;;;;;;20.77;50.90;100721.78;4937928;29;20051;-71
2022/07/05 06:07:49;;;;;;;6.03;4.07;;;;;;;20.69;51.88;100728.03;4926668;29;20440;-70
2022/07/05 06:10:19;;;;;;;7.47;5.00;;;;;;;20.62;53.00;100726.38;4922813;29;20103;-70
2022/07/05 06:12:50;;;;;;;5.95;3.65;;;;;;;20.55;52.18;100732.56;4920349;29;20048;-70
2022/07/05 06:15:18;;;;;;;7.90;4.57;;;;;;;20.51;53.05;100717.72;4923714;29;20115;-70
2022/07/05 06:17:47;;;;;;;7.20;3.42;;;;;;;20.48;53.47;100729.13;4922123;29;20059;-70
2022/07/05 06:20:17;;;;;;;5.10;3.60;;;;;;;20.46;53.28;100723.00;4922951;29;20104;-70
2022/07/05 06:22:46;;;;;;;7.53;3.42;;;;;;;20.43;53.66;100724.78;4926007;29;20056;-70
2022/07/05 06:25:15;;;;;;;7.88;2.95;;;;;;;20.38;53.03;100732.72;4920005;29;20044;-70
2022/07/05 06:27:44;;;;;;;4.18;2.88;;;;;;;20.35;53.44;100721.41;4929376;29;20127;-69
2022/07/05 06:30:16;;;;;;;4.10;2.75;;;;;;;20.32;53.22;100721.41;4919495;29;20475;-70
2022/07/05 06:32:46;;;;;;;5.45;2.85;;;;;;;20.27;53.34;100721.47;4921821;29;20184;-70
2022/07/05 06:35:15;;;;;;;3.72;2.30;;;;;;;20.22;53.40;100721.53;4919895;29;20550;-70
2022/07/05 06:37:44;;;;;;;3.35;2.50;;;;;;;20.20;52.87;100727.69;4920285;29;20462;-69
2022/07/05 06:40:14;;;;;;;3.78;2.35;;;;;;;20.17;53.07;100725.97;4929130;29;20048;-70
2022/07/05 06:42:42;;;;;;;2.70;2.30;;;;;;;20.16;53.26;100723.34;4931633;28;20135;-70
2022/07/05 06:45:13;;;;;;;4.13;2.40;;;;;;;20.12;54.22;100729.53;4931428;29;20497;-71
2022/07/05 06:47:42;;;;;;;4.28;2.45;;;;;;;20.05;54.06;100728.72;4925468;29;20051;-70
2022/07/05 06:50:12;;;;;;;3.45;2.08;;;;;;;19.97;54.47;100725.28;4930753;29;20047;-70
2022/07/05 06:52:41;;;;;;;4.00;2.60;;;;;;;19.92;54.40;100716.59;4928187;29;20035;-70
2022/07/05 06:55:10;;;;;;;3.05;2.05;;;;;;;19.90;53.72;100718.34;4930216;29;20047;-71
2022/07/05 06:57:38;;;;;;;2.30;1.70;;;;;;;19.86;52.84;100717.53;4926892;29;20111;-71
2022/07/05 07:00:08;;;;;;;3.33;2.33;;;;;;;19.83;53.81;100723.66;4930453;29;20060;-70
2022/07/05 07:02:38;;;;;;;2.80;1.80;;;;;;;19.79;53.75;100723.69;4926143;29;20110;-70
2022/07/05 07:05:08;;;;;;;2.80;1.88;;;;;;;19.74;53.48;100722.88;4926560;29;20052;-71
2022/07/05 07:10:22;;;;;;;3.38;2.20;;;;;;;19.68;52.89;100723.78;4931685;29;20054;-69
2022/07/05 07:12:50;;;;;;;3.22;1.65;;;;;;;19.65;52.70;100715.91;4924187;29;20103;-70
2022/07/05 07:15:19;;;;;;;1.73;1.30;;;;;;;19.66;52.42;100715.06;4929888;29;20510;-70
2022/07/05 07:17:49;;;;;;;3.85;1.55;;;;;;;19.67;51.77;100711.53;4920834;29;20055;-70
2022/07/05 07:20:18;;;;;;;3.03;1.70;;;;;;;19.66;52.20;100715.06;4940118;29;20593;-70
2022/07/05 07:22:46;;;;;;;2.65;1.60;;;;;;;19.64;52.46;100714.19;4925555;29;20075;-70
2022/07/05 07:25:15;;;;;;;2.25;1.60;;;;;;;19.61;52.39;100714.22;4933874;29;20094;-69
2022/07/05 07:27:44;;;;;;;3.40;1.88;;;;;;;19.58;52.85;100716.84;4931226;29;20152;-70
2022/07/05 07:30:15;;;;;;;2.75;1.75;;;;;;;19.55;52.96;100716.88;4932468;29;20126;-70
2022/07/05 07:32:43;;;;;;;2.88;1.85;;;;;;;19.54;53.11;100705.53;4932470;29;20067;-67
2022/07/05 07:35:14;;;;;;;2.10;1.70;;;;;;;19.52;53.90;100711.69;4930778;29;20047;-70
2022/07/05 07:37:43;;;;;;;3.67;1.77;;;;;;;19.48;53.64;100715.19;4929650;29;20506;-70
2022/07/05 07:40:12;;;;;;;2.40;1.55;;;;;;;19.44;53.75;100720.44;4935578;29;20047;-69
2022/07/05 07:42:47;;;;;;;2.58;1.90;;;;;;;19.39;53.50;100716.13;4927768;28;20108;-70
2022/07/05 07:45:15;;;;;;;2.60;1.60;;;;;;;19.35;53.69;100720.53;4933510;29;20055;-69
2022/07/05 07:47:44;;;;;;;2.10;1.70;;;;;;;19.33;54.54;100716.16;4933341;29;20052;-69
2022/07/05 07:50:14;;;;;;;2.38;1.77;;;;;;;19.31;52.71;100715.31;4933462;29;20044;-70
2022/07/05 07:52:42;;;;;;;2.95;1.77;;;;;;;19.29;53.51;100717.97;4937844;29;20059;-70
2022/07/05 07:55:16;;;;;;;4.03;1.88;;;;;;;19.27;53.53;100717.09;4931962;29;20047;-70
2022/07/05 07:57:45;;;;;;;3.17;2.10;;;;;;;19.27;53.53;100714.47;4932836;29;20047;-70
2022/07/05 08:00:14;;;;;;;2.60;1.73;;;;;;;19.19;53.99;100709.25;4934215;29;20052;-70
2022/07/05 08:02:43;;;;;;;2.63;2.00;;;;;;;19.22;53.55;100724.13;4931813;29;20055;-70
2022/07/05 08:05:13;;;;;;;2.83;2.17;;;;;;;19.20;53.50;100725.91;4934967;29;20040;-70
2022/07/05 08:07:41;;;;;;;2.75;1.95;;;;;;;19.17;53.98;100731.13;4938522;29;20518;-70
2022/07/05 08:10:11;;;;;;;4.35;2.00;;;;;;;19.17;54.10;100733.75;4933153;29;20498;-70
2022/07/05 08:12:39;;;;;;;2.88;2.20;;;;;;;19.15;54.81;100736.41;4929792;29;20055;-70
2022/07/05 08:15:09;;;;;;;4.43;2.55;;;;;;;19.12;56.40;100732.94;4931633;29;20048;-70
2022/07/05 08:21:30;;;;;;;4.68;2.28;;;;;;;19.11;56.24;100732.06;4930881;29;20054;-69
2022/07/05 08:23:13;;;;;;;4.28;2.30;;;;;;;19.15;58.22;100717.16;4930346;29;20261;-70
2022/07/05 08:25:42;;;;;;;3.28;2.25;;;;;;;19.15;57.03;100723.31;4933672;29;20039;-70
2022/07/05 08:28:10;;;;;;;3.90;2.20;;;;;;;19.14;56.30;100721.53;4928891;29;20040;-70
2022/07/05 08:30:39;;;;;;;3.30;2.42;;;;;;;19.10;56.94;100725.06;4930846;29;20048;-70
2022/07/05 08:33:07;;;;;;;4.07;2.30;;;;;;;19.11;56.03;100718.94;4926249;29;20554;-70
2022/07/05 08:35:38;;;;;;;3.95;2.13;;;;;;;19.12;56.27;100711.94;4930578;29;20520;-70
2022/07/05 08:38:06;;;;;;;3.95;2.38;;;;;;;19.13;58.20;100718.94;4930965;29;20494;-70
2022/07/05 08:40:39;;;;;;;3.13;2.13;;;;;;;19.13;57.02;100717.19;4937542;29;20540;-70
2022/07/05 08:43:09;;;;;;;2.97;2.30;;;;;;;19.14;58.92;100710.19;4938155;28;20122;-71
2022/07/05 08:45:40;;;;;;;4.88;2.72;;;;;;;19.16;59.80;100703.19;4932140;29;20102;-71
2022/07/05 08:48:10;;;;;;;4.22;3.08;;;;;;;19.16;59.93;100709.28;4921704;29;20048;-70
2022/07/05 08:50:42;;;;;;;4.68;2.65;;;;;;;19.16;60.13;100708.44;4922127;29;20059;-70
2022/07/05 08:53:11;;;;;;;3.95;2.50;;;;;;;19.16;58.03;100708.44;4924487;29;20047;-71
2022/07/05 08:55:41;;;;;;;4.20;2.78;;;;;;;19.15;57.85;100718.06;4923650;29;20115;-71
2022/07/05 08:58:10;;;;;;;5.75;3.42;;;;;;;19.16;58.02;100718.91;4924240;29;20092;-70
2022/07/05 09:00:40;;;;;;;4.85;3.60;;;;;;;19.17;58.17;100720.66;4932273;29;20679;-69
2022/07/05 09:03:08;;;;;;;6.00;4.55;;;;;;;19.18;58.27;100722.41;4921429;29;20558;-69
2022/07/05 09:05:43;;;;;;;11.88;7.13;;;;;;;19.19;58.29;100713.66;4940277;29;20490;-69
2022/07/05 09:08:15;;;;;;;13.02;8.32;;;;;;;19.20;58.59;100710.16;4931613;29;20052;-70
2022/07/05 09:10:45;;;;;;;14.02;8.20;;;;;;;19.21;58.66;100696.16;4930501;29;20142;-69
2022/07/05 09:13:14;;;;;;;9.23;5.30;;;;;;;19.20;59.64;100694.41;4928709;29;20551;-70
2022/07/05 09:15:42;;;;;;;4.65;3.85;;;;;;;19.22;59.97;100692.66;4929099;29;20520;-69
2022/07/05 09:18:12;;;;;;;8.70;5.00;;;;;;;19.19;59.45;100696.16;4930432;29;20048;-70
2022/07/05 09:20:42;;;;;;;13.13;6.40;;;;;;;19.15;59.29;100701.41;4929033;29;20047;-70
2022/07/05 09:23:15;;;;;;;7.78;5.63;;;;;;;19.10;61.04;100704.06;4940981;29;20115;-70
2022/07/05 09:25:45;;;;;;;9.45;6.07;;;;;;;19.03;61.33;100705.91;4932381;29;20066;-70
2022/07/05 09:28:13;;;;;;;9.45;6.97;;;;;;;19.01;60.72;100710.28;4927856;29;20048;-70
2022/07/05 09:30:42;;;;;;;8.80;6.72;;;;;;;19.03;60.42;100713.75;4926961;29;20118;-71
2022/07/05 09:33:12;;;;;;;9.55;6.35;;;;;;;19.02;63.40;100711.13;4942798;29;20546;-70
2022/07/05 09:35:44;;;;;;;14.35;11.02;;;;;;;18.95;65.01;100710.31;4936780;29;20114;-71
2022/07/05 09:38:20;;;;;;;12.38;7.53;;;;;;;18.91;65.14;100700.69;4935192;29;20552;-70
2022/07/05 09:40:49;;;;;;;7.53;5.55;;;;;;;18.93;67.03;100698.94;4923693;29;20047;-70
2022/07/05 09:43:19;;;;;;;8.63;6.40;;;;;;;18.92;65.91;100699.84;4912927;28;20060;-70
2022/07/05 09:45:58;;;;;;;11.68;8.15;;;;;;;18.91;65.45;100705.94;4901051;29;20048;-70
2022/07/05 09:48:28;;;;;;;21.33;12.95;;;;;;;18.89;65.73;100705.06;4923248;29;20096;-69
2022/07/05 09:51:07;;;;;;;21.00;13.43;;;;;;;18.89;65.58;100707.69;4921712;29;20104;-69
2022/07/05 09:53:47;;;;;;;20.05;13.45;;;;;;;18.91;66.19;100705.94;4913227;29;20075;-70
2022/07/05 09:56:15;;;;;;;20.08;13.23;;;;;;;18.90;66.12;100706.84;4914088;29;20574;-69
2022/07/05 09:58:45;;;;;;;20.10;13.70;;;;;;;18.90;66.62;100701.59;4920094;29;20048;-69
2022/07/05 10:01:29;;;;;;;20.73;13.18;;;;;;;18.90;67.26;100705.94;4910941;29;20132;-69
2022/07/05 10:03:58;;;;;;;18.73;12.43;;;;;;;18.89;68.17;100702.47;4902981;29;20508;-69
2022/07/05 10:06:30;;;;;;;16.17;9.65;;;;;;;18.90;67.78;100712.09;4906807;29;20107;-70
2022/07/05 10:08:59;;;;;;;14.93;11.00;;;;;;;18.88;67.82;100711.22;4908523;29;20510;-69
2022/07/05 10:11:28;;;;;;;18.88;12.63;;;;;;;18.86;67.26;100709.50;4909211;29;20287;-69
2022/07/05 10:13:57;;;;;;;20.52;14.32;;;;;;;18.84;68.77;100718.22;4906765;29;20052;-70
2022/07/05 10:16:25;;;;;;;24.67;14.73;;;;;;;18.81;69.71;100722.63;4911708;29;20052;-72
2022/07/05 10:18:57;;;;;;;23.67;14.15;;;;;;;18.74;70.04;100713.00;4914969;29;20131;-70
2022/07/05 10:21:28;;;;;;;16.67;11.07;;;;;;;18.71;70.50;100711.25;4916154;29;20656;-69
2022/07/05 10:23:58;;;;;;;16.83;10.60;;;;;;;18.71;70.81;100720.88;4908347;29;20501;-69
2022/07/05 10:26:32;;;;;;;14.82;10.93;;;;;;;18.70;70.29;100724.38;4919589;29;20154;-69
2022/07/05 10:29:01;;;;;;;15.93;11.00;;;;;;;18.69;70.06;100722.63;4914861;29;20048;-69
2022/07/05 10:31:31;;;;;;;19.23;12.55;;;;;;;18.65;70.52;100721.78;4912439;29;20107;-68
2022/07/05 10:34:07;;;;;;;23.80;14.10;;;;;;;18.60;71.00;100726.19;4909472;29;20048;-70
2022/07/05 10:36:38;;;;;;;20.13;12.93;;;;;;;18.58;71.00;100720.94;4912716;29;20104;-69
2022/07/05 10:39:07;;;;;;;24.00;13.77;;;;;;;18.59;70.87;100725.28;4921539;29;20497;-69
2022/07/05 10:41:38;;;;;;;17.88;12.57;;;;;;;18.60;70.99;100724.41;4919258;29;20491;-69
2022/07/05 10:44:07;;;;;;;20.67;11.98;;;;;;;18.61;71.00;100731.38;4932748;29;20055;-70
2022/07/05 10:46:47;;;;;;;22.05;12.65;;;;;;;18.61;71.26;100731.38;4935056;29;20051;-69
2022/07/05 10:49:19;;;;;;;22.08;12.70;;;;;;;18.63;71.29;100729.63;4926064;29;20060;-69
2022/07/05 10:51:49;;;;;;;21.05;12.93;;;;;;;18.63;70.94;100716.53;4932069;29;20135;-69
2022/07/05 10:54:18;;;;;;;20.02;12.25;;;;;;;18.63;72.09;100711.28;4933256;29;20110;-70
2022/07/05 10:57:24;;;;;;;17.95;12.30;;;;;;;18.65;72.53;100710.44;4930724;29;20102;-69
2022/07/05 11:00:07;;;;;;;21.73;12.35;;;;;;;18.63;71.68;100710.44;4930383;29;20044;-70
2022/07/05 11:02:36;;;;;;;18.17;11.63;;;;;;;18.59;71.53;100709.56;4925225;29;20043;-70
2022/07/05 11:05:05;;;;;;;14.13;9.65;;;;;;;18.52;70.75;100706.97;4931635;29;20489;-70
2022/07/05 11:08:02;;;;;;;19.17;11.75;;;;;;;18.45;71.69;100703.50;4933148;29;20059;-70
2022/07/05 11:10:32;;;;;;;13.65;10.10;;;;;;;18.45;70.36;100706.13;4920875;29;20049;-69
2022/07/05 11:13:01;;;;;;;12.60;8.27;;;;;;;18.46;70.12;100697.38;4934980;29;20067;-69
2022/07/05 11:15:29;;;;;;;12.60;8.65;;;;;;;18.47;69.54;100690.41;4934487;29;20050;-69
2022/07/05 11:18:24;;;;;;;19.52;9.93;;;;;;;18.47;70.90;100693.91;4923700;29;20051;-69
2022/07/05 11:21:18;;;;;;;15.10;9.60;;;;;;;18.46;70.54;100705.25;4933308;29;20055;-69
2022/07/05 11:23:48;;;;;;;10.63;7.13;;;;;;;18.43;70.44;100700.88;4933780;29;20580;-70
2022/07/05 11:26:19;;;;;;;16.20;8.70;;;;;;;18.37;71.80;100700.94;4934914;29;20125;-70
2022/07/05 11:28:49;;;;;;;16.42;9.80;;;;;;;18.27;72.17;100708.81;4932070;29;20055;-69
2022/07/05 11:31:42;;;;;;;15.75;9.82;;;;;;;18.25;73.68;100710.56;4934195;29;20056;-69
2022/07/05 11:34:17;;;;;;;12.65;9.10;;;;;;;18.26;73.76;100714.94;4925643;29;20044;-69
2022/07/05 11:36:45;;;;;;;11.85;7.50;;;;;;;18.26;73.10;100712.31;4941654;29;20135;-69
2022/07/05 11:39:18;;;;;;;8.38;5.45;;;;;;;18.26;71.10;100717.56;4937214;29;20189;-69
2022/07/05 11:41:47;;;;;;;7.75;4.00;;;;;;;18.25;69.64;100707.94;4933851;28;20139;-69